createdAt,value
2019-01-24T00:00:24.052Z,-2.29
2019-01-24T00:02:51.722Z,-2.34
2019-01-24T00:05:19.362Z,-2.25
2019-01-24T00:07:47.009Z,-2.22
2019-01-24T00:10:15.595Z,-2.23
2019-01-24T00:12:43.236Z,-2.29
2019-01-24T00:15:11.008Z,-2.35
2019-01-24T00:17:38.730Z,-2.41
2019-01-24T00:20:06.863Z,-2.44
2019-01-24T00:22:34.601Z,-2.43
2019-01-24T00:25:02.349Z,-2.44
2019-01-24T00:27:30.131Z,-2.43
2019-01-24T00:29:57.901Z,-2.42
2019-01-24T00:32:25.746Z,-2.44
2019-01-24T00:34:53.470Z,-2.43
2019-01-24T00:37:22.631Z,-2.44
2019-01-24T00:39:50.347Z,-2.47
2019-01-24T00:42:17.966Z,-2.42
2019-01-24T00:44:45.675Z,-2.47
2019-01-24T00:47:13.391Z,-2.46
2019-01-24T00:49:43.761Z,-2.39
2019-01-24T00:52:11.322Z,-2.43
2019-01-24T00:54:38.989Z,-2.35
2019-01-24T00:57:06.606Z,-2.37
2019-01-24T00:59:34.206Z,-2.39
2019-01-24T01:02:01.863Z,-2.41
2019-01-24T01:04:29.934Z,-2.41
2019-01-24T01:06:57.720Z,-2.49
2019-01-24T01:09:25.348Z,-2.50
2019-01-24T01:11:52.978Z,-2.48
2019-01-24T01:14:20.596Z,-2.50
2019-01-24T01:16:48.243Z,-2.46
2019-01-24T01:19:15.883Z,-2.42
2019-01-24T01:21:43.466Z,-2.45
2019-01-24T01:24:11.161Z,-2.46
2019-01-24T01:26:38.794Z,-2.43
2019-01-24T01:29:06.423Z,-2.40
2019-01-24T01:31:34.067Z,-2.42
2019-01-24T01:34:03.352Z,-2.31
2019-01-24T01:36:31.006Z,-2.27
2019-01-24T01:38:58.716Z,-2.31
2019-01-24T01:41:28.127Z,-2.31
2019-01-24T01:43:55.861Z,-2.24
2019-01-24T01:46:23.599Z,-2.22
2019-01-24T01:48:52.338Z,-2.28
2019-01-24T01:51:20.021Z,-2.26
2019-01-24T01:53:47.740Z,-2.24
2019-01-24T01:56:15.373Z,-2.20
2019-01-24T01:58:43.003Z,-2.18
2019-01-24T02:01:10.619Z,-2.14
2019-01-24T02:03:39.474Z,-2.11
2019-01-24T02:06:07.218Z,-2.14
2019-01-24T02:08:34.992Z,-2.09
2019-01-24T02:11:02.757Z,-2.00
2019-01-24T02:13:30.703Z,-2.04
2019-01-24T02:15:58.460Z,-2.06
2019-01-24T02:18:26.317Z,-2.19
2019-01-24T02:20:54.142Z,-2.23
2019-01-24T02:23:21.777Z,-2.15
2019-01-24T02:25:49.441Z,-2.06
2019-01-24T02:28:17.179Z,-2.05
2019-01-24T02:30:44.916Z,-2.02
2019-01-24T02:33:12.741Z,-1.97
2019-01-24T02:35:40.500Z,-1.97
2019-01-24T02:38:08.245Z,-1.95
2019-01-24T02:40:35.876Z,-1.89
2019-01-24T02:43:03.639Z,-1.94
2019-01-24T02:45:31.351Z,-1.97
2019-01-24T02:47:59.111Z,-1.92
2019-01-24T02:50:26.751Z,-1.94
2019-01-24T02:52:54.509Z,-1.89
2019-01-24T02:55:22.344Z,-1.94
2019-01-24T02:57:50.023Z,-1.93
2019-01-24T03:00:21.495Z,-1.99
2019-01-24T03:02:50.648Z,-2.07
2019-01-24T03:05:20.757Z,-2.14
2019-01-24T03:07:49.839Z,-2.12
2019-01-24T03:10:17.598Z,-2.05
2019-01-24T03:12:45.432Z,-2.02
2019-01-24T03:15:15.275Z,-2.09
2019-01-24T03:17:45.867Z,-1.92
2019-01-24T03:20:14.052Z,-1.94
2019-01-24T03:22:41.774Z,-1.88
2019-01-24T03:25:09.678Z,-1.84
2019-01-24T03:27:37.418Z,-1.80
2019-01-24T03:30:07.837Z,-1.82
2019-01-24T03:32:35.573Z,-1.80
2019-01-24T03:35:04.751Z,-1.77
2019-01-24T03:37:32.487Z,-1.79
2019-01-24T03:40:00.407Z,-1.81
2019-01-24T03:42:28.113Z,-1.77
2019-01-24T03:44:55.741Z,-1.78
2019-01-24T03:47:23.416Z,-1.76
2019-01-24T03:49:51.017Z,-1.75
2019-01-24T03:52:18.703Z,-1.76
2019-01-24T03:54:46.259Z,-1.77
2019-01-24T03:57:13.980Z,-1.87
2019-01-24T03:59:41.551Z,-1.88
2019-01-24T04:02:09.213Z,-1.90
2019-01-24T04:04:36.818Z,-1.89
2019-01-24T04:07:04.699Z,-1.91
2019-01-24T04:09:32.215Z,-1.94
2019-01-24T04:11:59.885Z,-1.97
2019-01-24T04:14:27.436Z,-1.96
2019-01-24T04:16:55.048Z,-1.99
2019-01-24T04:19:22.640Z,-2.04
2019-01-24T04:21:50.288Z,-2.00
2019-01-24T04:24:17.952Z,-1.98
2019-01-24T04:26:45.498Z,-1.94
2019-01-24T04:29:13.256Z,-1.93
2019-01-24T04:31:40.842Z,-1.94
2019-01-24T04:34:08.469Z,-1.90
2019-01-24T04:36:36.098Z,-1.87
2019-01-24T04:39:06.221Z,-1.95
2019-01-24T04:41:33.804Z,-1.93
2019-01-24T04:44:01.479Z,-1.86
2019-01-24T04:46:29.073Z,-1.82
2019-01-24T04:48:56.750Z,-1.84
2019-01-24T04:51:24.359Z,-1.93
2019-01-24T04:53:52.094Z,-1.96
2019-01-24T04:56:19.682Z,-2.00
2019-01-24T04:58:47.367Z,-1.93
2019-01-24T05:01:14.996Z,-1.93
2019-01-24T05:03:42.678Z,-1.91
2019-01-24T05:06:10.302Z,-1.92
2019-01-24T05:08:37.934Z,-1.93
2019-01-24T05:11:05.509Z,-1.81
2019-01-24T05:13:33.217Z,-1.76
2019-01-24T05:16:00.797Z,-1.74
2019-01-24T05:18:28.474Z,-1.75
2019-01-24T05:20:56.035Z,-1.78
2019-01-24T05:23:23.798Z,-1.75
2019-01-24T05:25:51.392Z,-1.70
2019-01-24T05:28:19.099Z,-1.60
2019-01-24T05:30:46.685Z,-1.70
2019-01-24T05:33:14.833Z,-1.66
2019-01-24T05:35:42.442Z,-1.77
2019-01-24T05:38:10.187Z,-1.89
2019-01-24T05:40:37.790Z,-1.86
2019-01-24T05:43:05.485Z,-1.90
2019-01-24T05:45:33.051Z,-1.79
2019-01-24T05:48:00.644Z,-1.76
2019-01-24T05:50:28.230Z,-1.84
2019-01-24T05:52:55.926Z,-1.77
2019-01-24T05:55:23.667Z,-1.77
2019-01-24T05:57:51.401Z,-1.77
2019-01-24T06:00:45.343Z,-1.82
2019-01-24T06:03:12.912Z,-1.83
2019-01-24T06:05:41.846Z,-1.84
2019-01-24T06:08:09.666Z,-1.75
2019-01-24T06:10:37.406Z,-1.77
2019-01-24T06:13:05.032Z,-1.79
2019-01-24T06:15:32.763Z,-1.76
2019-01-24T06:18:00.500Z,-1.77
2019-01-24T06:20:28.167Z,-1.84
2019-01-24T06:23:07.876Z,-1.88
2019-01-24T06:25:35.579Z,-1.92
2019-01-24T06:28:03.676Z,-1.98
2019-01-24T06:30:31.485Z,-1.94
2019-01-24T06:32:59.355Z,-2.02
2019-01-24T06:35:27.160Z,-1.96
2019-01-24T06:37:54.851Z,-1.96
2019-01-24T06:40:22.650Z,-2.02
2019-01-24T06:42:50.404Z,-1.96
2019-01-24T06:45:19.924Z,-1.97
2019-01-24T06:47:47.769Z,-1.97
2019-01-24T06:50:16.059Z,-1.97
2019-01-24T06:52:43.772Z,-1.98
2019-01-24T06:55:13.892Z,-2.08
2019-01-24T06:57:41.729Z,-2.11
2019-01-24T07:00:12.439Z,-2.13
2019-01-24T07:02:40.129Z,-2.04
2019-01-24T07:05:07.819Z,-2.08
2019-01-24T07:07:35.598Z,-2.04
2019-01-24T07:10:03.977Z,-2.04
2019-01-24T07:12:31.700Z,-1.98
2019-01-24T07:14:59.303Z,-1.94
2019-01-24T07:17:27.056Z,-1.98
2019-01-24T07:19:54.653Z,-2.01
2019-01-24T07:22:22.274Z,-2.02
2019-01-24T07:24:49.907Z,-2.02
2019-01-24T07:27:17.603Z,-2.00
2019-01-24T07:29:45.226Z,-1.99
2019-01-24T07:32:12.929Z,-1.94
2019-01-24T07:34:40.531Z,-1.93
2019-01-24T07:37:08.192Z,-1.84
2019-01-24T07:39:35.823Z,-1.79
2019-01-24T07:42:03.616Z,-1.66
2019-01-24T07:44:31.298Z,-1.56
2019-01-24T07:46:58.900Z,-1.57
2019-01-24T07:49:29.447Z,-1.41
2019-01-24T07:51:57.127Z,-1.15
2019-01-24T07:54:24.729Z,-1.10
2019-01-24T07:56:52.498Z,-1.06
2019-01-24T07:59:20.136Z,-0.95
2019-01-24T08:01:47.744Z,-0.76
2019-01-24T08:04:15.362Z,-0.65
2019-01-24T08:06:42.996Z,-0.56
2019-01-24T08:09:10.627Z,-0.70
2019-01-24T08:11:38.372Z,-0.55
2019-01-24T08:14:06.013Z,-0.47
2019-01-24T08:16:33.642Z,-0.36
2019-01-24T08:19:01.234Z,-0.43
2019-01-24T08:21:28.832Z,-0.51
2019-01-24T08:23:56.428Z,-0.55
2019-01-24T08:26:24.038Z,-0.55
2019-01-24T08:28:51.632Z,-0.57
2019-01-24T08:31:19.254Z,-0.45
2019-01-24T08:33:47.883Z,-0.51
2019-01-24T08:36:15.813Z,-0.55
2019-01-24T08:38:43.560Z,-0.46
2019-01-24T08:41:11.276Z,-0.28
2019-01-24T08:43:39.077Z,-0.11
2019-01-24T08:46:06.901Z,-0.05
2019-01-24T08:48:39.033Z,-0.08
2019-01-24T08:51:08.380Z,-0.02
2019-01-24T08:53:36.232Z,0.07
2019-01-24T08:56:04.417Z,-0.01
2019-01-24T08:58:32.193Z,0.15
2019-01-24T09:00:59.991Z,0.27
2019-01-24T09:03:27.748Z,0.43
2019-01-24T09:05:55.487Z,0.14
2019-01-24T09:08:23.177Z,0.12
2019-01-24T09:10:50.897Z,0.15
2019-01-24T09:13:18.540Z,0.01
2019-01-24T09:15:46.477Z,0.05
2019-01-24T09:18:14.396Z,0.07
2019-01-24T09:20:41.953Z,0.04
2019-01-24T09:23:09.628Z,0.22
2019-01-24T09:25:37.285Z,0.20
2019-01-24T09:28:05.201Z,0.47
2019-01-24T09:30:32.876Z,0.57
2019-01-24T09:33:00.760Z,0.53
2019-01-24T09:35:28.488Z,0.55
2019-01-24T09:37:56.290Z,0.65
2019-01-24T09:40:24.061Z,0.89
2019-01-24T09:42:51.810Z,0.91
2019-01-24T09:45:21.756Z,0.91
2019-01-24T09:47:49.586Z,0.90
2019-01-24T09:50:19.173Z,1.07
2019-01-24T09:52:46.997Z,1.00
2019-01-24T09:55:14.575Z,1.01
2019-01-24T09:57:42.248Z,1.06
2019-01-24T10:00:31.209Z,1.05
2019-01-24T10:02:59.016Z,1.23
2019-01-24T10:05:26.735Z,1.16
2019-01-24T10:07:54.664Z,1.16
2019-01-24T10:10:25.703Z,1.09
2019-01-24T10:12:54.353Z,1.00
2019-01-24T10:15:22.072Z,1.21
2019-01-24T10:17:49.743Z,1.31
2019-01-24T10:20:18.734Z,1.35
2019-01-24T10:22:46.524Z,1.43
2019-01-24T10:25:16.939Z,1.42
2019-01-24T10:27:44.646Z,1.50
2019-01-24T10:30:13.903Z,1.30
2019-01-24T10:32:41.647Z,1.38
2019-01-24T10:35:09.279Z,1.38
2019-01-24T10:37:36.938Z,1.32
2019-01-24T10:40:06.825Z,1.23
2019-01-24T10:42:34.572Z,1.27
2019-01-24T10:45:02.313Z,1.35
2019-01-24T10:47:30.099Z,1.42
2019-01-24T10:49:57.880Z,1.47
2019-01-24T10:52:25.693Z,1.64
2019-01-24T10:54:53.414Z,1.70
2019-01-24T10:57:21.232Z,1.69
2019-01-24T10:59:49.026Z,1.76
2019-01-24T11:02:16.762Z,1.78
2019-01-24T11:04:44.595Z,1.85
2019-01-24T11:07:12.331Z,1.86
2019-01-24T11:09:40.081Z,2.03
2019-01-24T11:12:07.748Z,2.09
2019-01-24T11:14:35.577Z,2.08
2019-01-24T11:17:03.320Z,2.10
2019-01-24T11:19:31.161Z,2.12
2019-01-24T11:21:58.863Z,2.17
2019-01-24T11:24:26.580Z,2.07
2019-01-24T11:26:54.355Z,1.93
2019-01-24T11:29:22.100Z,1.99
2019-01-24T11:31:50.898Z,1.93
2019-01-24T11:34:18.595Z,1.92
2019-01-24T11:36:49.148Z,1.91
2019-01-24T11:39:16.928Z,1.90
2019-01-24T11:41:44.586Z,1.94
2019-01-24T11:44:12.300Z,2.04
2019-01-24T11:46:40.009Z,2.06
2019-01-24T11:49:07.729Z,1.90
2019-01-24T11:51:35.388Z,1.94
2019-01-24T11:54:03.126Z,1.94
2019-01-24T11:56:30.871Z,2.04
2019-01-24T11:58:58.608Z,2.12
2019-01-24T12:01:26.611Z,2.43
2019-01-24T12:03:56.093Z,2.58
2019-01-24T12:06:24.294Z,2.56
2019-01-24T12:08:52.611Z,2.55
2019-01-24T12:11:23.588Z,2.51
2019-01-24T12:13:51.932Z,2.45
2019-01-24T12:16:20.481Z,2.47
2019-01-24T12:18:49.227Z,2.55
2019-01-24T12:21:17.460Z,2.43
2019-01-24T12:23:45.360Z,2.53
2019-01-24T12:26:13.287Z,2.48
2019-01-24T12:28:41.003Z,2.45
2019-01-24T12:31:08.632Z,2.53
2019-01-24T12:33:39.271Z,2.65
2019-01-24T12:36:06.830Z,2.69
2019-01-24T12:38:34.484Z,2.66
2019-01-24T12:41:02.096Z,2.67
2019-01-24T12:43:29.886Z,2.61
2019-01-24T12:45:58.592Z,2.59
2019-01-24T12:48:26.264Z,2.61
2019-01-24T12:50:53.954Z,2.80
2019-01-24T12:53:21.690Z,2.78
2019-01-24T12:55:49.343Z,2.69
2019-01-24T12:58:17.068Z,2.81
2019-01-24T13:00:44.724Z,2.90
2019-01-24T13:03:12.511Z,3.01
2019-01-24T13:05:40.165Z,2.94
2019-01-24T13:08:08.080Z,3.05
2019-01-24T13:10:35.935Z,3.10
2019-01-24T13:13:04.112Z,2.97
2019-01-24T13:15:32.467Z,3.02
2019-01-24T13:18:00.445Z,3.00
2019-01-24T13:20:28.454Z,3.12
2019-01-24T13:22:56.147Z,3.06
2019-01-24T13:25:26.202Z,3.07
2019-01-24T13:27:53.970Z,3.17
2019-01-24T13:30:23.418Z,3.02
2019-01-24T13:32:52.219Z,3.03
2019-01-24T13:35:19.896Z,2.99
2019-01-24T13:37:47.504Z,2.72
2019-01-24T13:40:17.628Z,3.04
2019-01-24T13:42:45.378Z,3.05
2019-01-24T13:45:16.078Z,3.07
2019-01-24T13:47:43.784Z,3.01
2019-01-24T13:50:13.351Z,2.95
2019-01-24T13:52:41.025Z,2.92
2019-01-24T13:55:08.796Z,3.00
2019-01-24T13:57:36.425Z,3.14
2019-01-24T14:00:08.890Z,2.93
2019-01-24T14:02:37.030Z,3.19
2019-01-24T14:05:06.467Z,3.08
2019-01-24T14:07:34.141Z,3.04
2019-01-24T14:10:01.951Z,2.93
2019-01-24T14:12:29.686Z,2.88
2019-01-24T14:14:57.375Z,2.85
2019-01-24T14:17:24.961Z,3.03
2019-01-24T14:19:52.814Z,3.22
2019-01-24T14:22:20.406Z,3.29
2019-01-24T14:24:48.092Z,3.26
2019-01-24T14:27:15.663Z,3.14
2019-01-24T14:29:43.424Z,2.87
2019-01-24T14:32:11.586Z,2.89
2019-01-24T14:34:39.616Z,2.96
2019-01-24T14:37:08.249Z,2.99
2019-01-24T14:39:35.946Z,3.04
2019-01-24T14:42:03.650Z,3.04
2019-01-24T14:44:31.331Z,3.03
2019-01-24T14:46:58.943Z,2.95
2019-01-24T14:49:26.619Z,2.74
2019-01-24T14:51:54.169Z,2.75
2019-01-24T14:54:21.888Z,2.72
2019-01-24T14:56:49.459Z,2.69
2019-01-24T14:59:17.177Z,2.26
2019-01-24T15:01:44.873Z,2.44
2019-01-24T15:04:12.565Z,2.27
2019-01-24T15:06:40.184Z,2.19
2019-01-24T15:09:08.306Z,2.05
2019-01-24T15:11:35.894Z,1.89
2019-01-24T15:14:04.138Z,1.77
2019-01-24T15:16:31.743Z,1.67
2019-01-24T15:18:59.531Z,1.51
2019-01-24T15:21:27.144Z,1.32
2019-01-24T15:23:54.763Z,1.24
2019-01-24T15:26:23.382Z,1.34
2019-01-24T15:28:51.085Z,1.33
2019-01-24T15:31:18.673Z,1.28
2019-01-24T15:33:46.353Z,1.18
2019-01-24T15:36:13.921Z,1.10
2019-01-24T15:38:41.593Z,1.02
2019-01-24T15:41:09.187Z,0.99
2019-01-24T15:43:37.122Z,0.90
2019-01-24T15:46:04.845Z,0.94
2019-01-24T15:48:32.640Z,0.81
2019-01-24T15:51:00.244Z,0.75
2019-01-24T15:53:27.928Z,0.70
2019-01-24T15:55:55.571Z,0.56
2019-01-24T15:58:23.293Z,0.37
2019-01-24T16:00:50.927Z,0.24
2019-01-24T16:03:18.613Z,-0.02
2019-01-24T16:05:46.256Z,-0.11
2019-01-24T16:08:13.883Z,-0.03
2019-01-24T16:10:41.534Z,-0.08
2019-01-24T16:13:09.195Z,-0.11
2019-01-24T16:15:37.115Z,-0.23
2019-01-24T16:18:07.244Z,-0.23
2019-01-24T16:20:34.965Z,-0.29
2019-01-24T16:23:02.611Z,-0.46
2019-01-24T16:25:31.418Z,-0.61
2019-01-24T16:27:59.112Z,-0.75
2019-01-24T16:30:30.857Z,-0.98
2019-01-24T16:32:58.629Z,-1.07
2019-01-24T16:35:26.445Z,-1.05
2019-01-24T16:37:55.827Z,-1.14
2019-01-24T16:40:24.532Z,-1.10
2019-01-24T16:42:52.247Z,-1.12
2019-01-24T16:45:21.705Z,-1.17
2019-01-24T16:47:49.497Z,-1.27
2019-01-24T16:50:18.213Z,-1.48
2019-01-24T16:52:45.963Z,-1.54
2019-01-24T16:55:14.061Z,-1.53
2019-01-24T16:57:41.790Z,-1.44
2019-01-24T17:00:36.423Z,-1.51
2019-01-24T17:03:04.308Z,-1.48
2019-01-24T17:05:31.961Z,-1.51
2019-01-24T17:07:59.562Z,-1.45
2019-01-24T17:10:27.237Z,-1.47
2019-01-24T17:12:56.004Z,-1.48
2019-01-24T17:15:23.875Z,-1.56
2019-01-24T17:17:51.499Z,-1.51
2019-01-24T17:20:21.132Z,-1.56
2019-01-24T17:22:48.919Z,-1.63
2019-01-24T17:25:17.671Z,-1.58
2019-01-24T17:27:46.348Z,-1.59
2019-01-24T17:30:17.568Z,-1.60
2019-01-24T17:32:46.947Z,-1.62
2019-01-24T17:35:14.881Z,-1.77
2019-01-24T17:37:42.553Z,-1.78
2019-01-24T17:40:19.307Z,-1.83
2019-01-24T17:42:46.941Z,-1.92
2019-01-24T17:45:15.058Z,-2.09
2019-01-24T17:47:42.787Z,-2.13
2019-01-24T17:50:11.285Z,-2.14
2019-01-24T17:52:38.973Z,-2.13
2019-01-24T17:55:12.735Z,-2.09
2019-01-24T17:57:40.617Z,-2.11
2019-01-24T18:00:12.556Z,-2.08
2019-01-24T18:02:40.297Z,-2.18
2019-01-24T18:05:08.679Z,-2.15
2019-01-24T18:07:36.275Z,-2.16
2019-01-24T18:10:13.873Z,-2.22
2019-01-24T18:12:37.310Z,-2.19
2019-01-24T18:15:07.493Z,-2.21
2019-01-24T18:17:35.213Z,-2.28
2019-01-24T18:20:03.499Z,-2.37
2019-01-24T18:22:31.142Z,-2.47
2019-01-24T18:24:58.801Z,-2.55
2019-01-24T18:27:26.567Z,-2.55
2019-01-24T18:29:54.373Z,-2.59
2019-01-24T18:32:22.161Z,-2.60
2019-01-24T18:34:49.870Z,-2.73
2019-01-24T18:37:17.562Z,-2.69
2019-01-24T18:39:45.273Z,-2.64
2019-01-24T18:42:13.084Z,-2.65
2019-01-24T18:44:40.759Z,-2.59
2019-01-24T18:47:08.432Z,-2.53
2019-01-24T18:49:36.220Z,-2.49
2019-01-24T18:52:04.869Z,-2.44
2019-01-24T18:54:32.671Z,-2.40
2019-01-24T18:57:00.380Z,-2.32
2019-01-24T18:59:28.139Z,-2.23
2019-01-24T19:01:55.875Z,-1.89
2019-01-24T19:04:23.559Z,-1.79
2019-01-24T19:06:51.326Z,-1.65
2019-01-24T19:09:19.090Z,-1.43
2019-01-24T19:11:46.918Z,-1.19
2019-01-24T19:14:14.652Z,-0.74
2019-01-24T19:16:42.384Z,-0.77
2019-01-24T19:19:10.040Z,-0.58
2019-01-24T19:21:37.781Z,-0.33
2019-01-24T19:24:05.469Z,-0.14
2019-01-24T19:26:33.249Z,0.04
2019-01-24T19:29:00.955Z,0.15
2019-01-24T19:31:29.773Z,0.35
2019-01-24T19:33:57.519Z,0.62
2019-01-24T19:36:25.249Z,0.43
2019-01-24T19:38:53.402Z,0.25
2019-01-24T19:41:21.406Z,0.16
2019-01-24T19:43:49.182Z,-0.01
2019-01-24T19:46:17.072Z,-0.15
2019-01-24T19:48:44.772Z,-0.14
2019-01-24T19:51:12.672Z,-0.28
2019-01-24T19:53:40.522Z,-0.31
2019-01-24T19:56:08.505Z,-0.30
2019-01-24T19:58:36.261Z,-0.30
2019-01-24T20:01:04.496Z,-0.33
2019-01-24T20:03:33.924Z,-0.36
2019-01-24T20:06:03.469Z,-0.40
2019-01-24T20:08:31.230Z,-0.40
2019-01-24T20:10:58.999Z,-0.43
2019-01-24T20:13:26.818Z,-0.44
2019-01-24T20:15:54.489Z,-0.47
2019-01-24T20:18:22.165Z,-0.49
2019-01-24T20:20:50.825Z,-0.57
2019-01-24T20:23:18.521Z,-0.54
2019-01-24T20:25:46.310Z,-0.55
2019-01-24T20:28:14.002Z,-0.52
2019-01-24T20:30:41.814Z,-0.48
2019-01-24T20:33:09.567Z,-0.50
2019-01-24T20:35:46.032Z,-0.51
2019-01-24T20:38:19.921Z,-0.51
2019-01-24T20:40:47.634Z,-0.50
2019-01-24T20:43:18.171Z,-0.52
2019-01-24T20:45:48.565Z,-0.48
2019-01-24T20:48:16.197Z,-0.42
2019-01-24T20:50:44.021Z,-0.48
2019-01-24T20:53:13.443Z,-0.38
2019-01-24T20:55:41.221Z,-0.39
2019-01-24T20:58:08.951Z,-0.31
2019-01-24T21:00:37.712Z,-0.32
2019-01-24T21:03:05.859Z,-0.33
2019-01-24T21:05:33.498Z,-0.35
2019-01-24T21:08:03.934Z,-0.38
2019-01-24T21:10:31.586Z,-0.36
2019-01-24T21:12:59.229Z,-0.35
2019-01-24T21:15:26.883Z,-0.33
2019-01-24T21:17:54.552Z,-0.37
2019-01-24T21:20:23.889Z,-0.40
2019-01-24T21:22:51.485Z,-0.34
2019-01-24T21:25:20.438Z,-0.37
2019-01-24T21:27:48.126Z,-0.47
2019-01-24T21:30:30.257Z,-0.45
2019-01-24T21:32:57.844Z,-0.46
2019-01-24T21:35:25.615Z,-0.46
2019-01-24T21:37:53.265Z,-0.40
2019-01-24T21:40:21.212Z,-0.35
2019-01-24T21:42:48.778Z,-0.34
2019-01-24T21:45:18.653Z,-0.35
2019-01-24T21:47:46.232Z,-0.30
2019-01-24T21:50:16.245Z,-0.31
2019-01-24T21:52:44.009Z,-0.38
2019-01-24T21:55:12.159Z,-0.28
2019-01-24T21:57:39.794Z,-0.30
2019-01-24T22:00:09.603Z,-0.26
2019-01-24T22:02:37.183Z,-0.37
2019-01-24T22:05:05.547Z,-0.34
2019-01-24T22:07:33.236Z,-0.38
2019-01-24T22:10:00.987Z,-0.33
2019-01-24T22:12:29.848Z,-0.32
2019-01-24T22:14:57.492Z,-0.35
2019-01-24T22:17:25.089Z,-0.26
2019-01-24T22:19:52.751Z,-0.21
2019-01-24T22:22:20.540Z,-0.25
2019-01-24T22:24:48.179Z,-0.28
2019-01-24T22:27:15.829Z,-0.35
2019-01-24T22:29:43.474Z,-0.40
2019-01-24T22:32:11.083Z,-0.46
2019-01-24T22:34:38.694Z,-0.52
2019-01-24T22:37:06.418Z,-0.55
2019-01-24T22:39:36.723Z,-0.61
2019-01-24T22:42:04.327Z,-0.62
2019-01-24T22:44:32.015Z,-0.60
2019-01-24T22:47:01.648Z,-0.75
2019-01-24T22:49:29.035Z,-0.80
2019-01-24T22:51:56.680Z,-0.83
2019-01-24T22:54:24.364Z,-0.89
2019-01-24T22:56:52.069Z,-0.87
2019-01-24T22:59:19.750Z,-0.83
2019-01-24T23:02:11.241Z,-0.87
2019-01-24T23:04:38.842Z,-0.91
2019-01-24T23:07:06.528Z,-1.01
2019-01-24T23:09:34.135Z,-0.98
2019-01-24T23:12:01.812Z,-1.02
2019-01-24T23:14:29.442Z,-1.13
2019-01-24T23:16:57.153Z,-1.10
2019-01-24T23:19:24.813Z,-1.08
2019-01-24T23:21:52.562Z,-1.05
2019-01-24T23:24:20.159Z,-1.15
2019-01-24T23:26:47.803Z,-1.11
2019-01-24T23:29:15.404Z,-1.17
2019-01-24T23:31:43.118Z,-1.21
2019-01-24T23:34:10.870Z,-1.30
2019-01-24T23:36:38.575Z,-1.29
2019-01-24T23:39:08.832Z,-1.31
2019-01-24T23:41:36.608Z,-1.35
2019-01-24T23:44:04.393Z,-1.49
2019-01-24T23:46:32.149Z,-1.59
2019-01-24T23:48:59.813Z,-1.57
2019-01-24T23:51:27.408Z,-1.73
2019-01-24T23:53:55.256Z,-1.89
2019-01-24T23:56:22.925Z,-2.01
2019-01-24T23:58:50.559Z,-1.93
